createdAt,value
2022-08-20T00:02:31.884Z,23.41
2022-08-20T00:05:02.687Z,23.41
2022-08-20T00:07:39.677Z,23.39
2022-08-20T00:10:21.070Z,23.24
2022-08-20T00:12:56.973Z,23.18
2022-08-20T00:15:42.127Z,23.14
2022-08-20T00:18:12.377Z,23.14
2022-08-20T00:20:49.092Z,23.13
2022-08-20T00:23:19.740Z,23.15
2022-08-20T00:25:49.913Z,23.16
2022-08-20T00:28:21.816Z,23.15
2022-08-20T00:30:51.256Z,23.14
2022-08-20T00:33:24.774Z,23.12
2022-08-20T00:36:06.958Z,23.12
2022-08-20T00:38:41.229Z,23.09
2022-08-20T00:41:26.901Z,23.06
2022-08-20T00:44:01.746Z,23.06
2022-08-20T00:46:32.602Z,23.09
2022-08-20T00:49:04.317Z,23.10
2022-08-20T00:51:50.732Z,23.11
2022-08-20T00:54:39.450Z,23.12
2022-08-20T00:57:59.043Z,23.10
2022-08-20T01:00:32.962Z,23.08
2022-08-20T01:03:02.630Z,23.06
2022-08-20T01:05:35.267Z,23.10
2022-08-20T01:08:10.661Z,23.14
2022-08-20T01:10:59.602Z,23.17
2022-08-20T01:13:28.970Z,23.15
2022-08-20T01:16:06.152Z,23.12
2022-08-20T01:18:38.995Z,23.06
2022-08-20T01:21:11.489Z,23.06
2022-08-20T01:24:29.425Z,23.03
2022-08-20T01:27:06.258Z,22.95
2022-08-20T01:29:42.419Z,22.90
2022-08-20T01:32:16.600Z,22.84
2022-08-20T01:34:46.174Z,22.80
2022-08-20T01:37:15.509Z,22.82
2022-08-20T01:39:45.192Z,22.82
2022-08-20T01:42:59.357Z,22.79
2022-08-20T01:45:32.049Z,22.73
2022-08-20T01:48:09.738Z,22.67
2022-08-20T01:50:51.957Z,22.64
2022-08-20T01:53:46.144Z,22.61
2022-08-20T01:56:22.678Z,22.56
2022-08-20T01:58:58.924Z,22.52
2022-08-20T02:01:46.816Z,22.51
2022-08-20T02:04:18.457Z,22.52
2022-08-20T02:07:00.444Z,22.56
2022-08-20T02:09:34.571Z,22.58
2022-08-20T02:12:12.883Z,22.57
2022-08-20T02:14:54.925Z,22.56
2022-08-20T02:17:26.091Z,22.58
2022-08-20T02:20:06.495Z,22.61
2022-08-20T02:22:57.072Z,22.62
2022-08-20T02:25:32.948Z,22.58
2022-08-20T02:28:14.454Z,22.54
2022-08-20T02:30:51.783Z,22.50
2022-08-20T02:33:24.203Z,22.50
2022-08-20T02:35:55.843Z,22.51
2022-08-20T02:38:27.821Z,22.51
2022-08-20T02:40:57.493Z,22.40
2022-08-20T02:43:28.455Z,22.35
2022-08-20T02:46:02.852Z,22.30
2022-08-20T02:48:33.861Z,22.28
2022-08-20T02:51:07.206Z,22.27
2022-08-20T02:53:42.497Z,22.29
2022-08-20T02:56:12.537Z,22.28
2022-08-20T02:58:43.032Z,22.25
2022-08-20T03:01:21.235Z,22.20
2022-08-20T03:03:50.744Z,22.14
2022-08-20T03:06:23.367Z,22.11
2022-08-20T03:08:53.837Z,22.13
2022-08-20T03:11:23.352Z,22.16
2022-08-20T03:13:55.184Z,22.14
2022-08-20T03:16:26.990Z,22.11
2022-08-20T03:18:57.736Z,22.10
2022-08-20T03:21:27.144Z,22.12
2022-08-20T03:23:56.579Z,22.12
2022-08-20T03:26:27.794Z,22.09
2022-08-20T03:29:00.127Z,22.06
2022-08-20T03:31:30.014Z,22.03
2022-08-20T03:34:03.920Z,22.00
2022-08-20T03:36:33.287Z,22.00
2022-08-20T03:39:11.986Z,22.04
2022-08-20T03:41:42.520Z,22.06
2022-08-20T03:44:13.690Z,22.07
2022-08-20T03:46:45.621Z,22.05
2022-08-20T03:49:14.998Z,22.02
2022-08-20T03:51:57.820Z,21.98
2022-08-20T03:54:31.921Z,21.93
2022-08-20T03:57:13.993Z,21.89
2022-08-20T03:59:51.921Z,21.86
2022-08-20T04:02:29.621Z,21.85
2022-08-20T04:05:00.506Z,21.83
2022-08-20T04:07:30.928Z,21.82
2022-08-20T04:10:00.484Z,21.81
2022-08-20T04:12:29.836Z,21.82
2022-08-20T04:14:58.997Z,21.85
2022-08-20T04:17:29.305Z,21.88
2022-08-20T04:19:58.770Z,21.93
2022-08-20T04:22:28.045Z,21.95
2022-08-20T04:24:58.798Z,21.95
2022-08-20T04:27:33.324Z,21.94
2022-08-20T04:30:11.680Z,21.96
2022-08-20T04:32:42.414Z,21.99
2022-08-20T04:35:26.109Z,22.04
2022-08-20T04:38:09.348Z,22.11
2022-08-20T04:40:58.878Z,22.16
2022-08-20T04:43:34.886Z,22.22
2022-08-20T04:46:11.912Z,22.26
2022-08-20T04:48:49.194Z,22.30
2022-08-20T04:51:24.316Z,22.34
2022-08-20T04:53:56.608Z,22.39
2022-08-20T04:56:35.389Z,22.43
2022-08-20T04:59:12.328Z,22.47
2022-08-20T05:01:42.142Z,22.51
2022-08-20T05:04:12.569Z,22.56
2022-08-20T05:06:46.888Z,22.60
2022-08-20T05:09:16.212Z,22.64
2022-08-20T05:11:48.531Z,22.69
2022-08-20T05:14:22.636Z,22.73
2022-08-20T05:16:56.875Z,22.74
2022-08-20T05:19:29.276Z,22.73
2022-08-20T05:22:01.751Z,22.69
2022-08-20T05:24:33.744Z,22.66
2022-08-20T05:27:03.030Z,22.60
2022-08-20T05:29:32.414Z,22.56
2022-08-20T05:32:02.206Z,22.55
2022-08-20T05:34:31.591Z,22.53
2022-08-20T05:37:04.461Z,22.51
2022-08-20T05:39:37.665Z,22.48
2022-08-20T05:42:10.127Z,22.45
2022-08-20T05:44:39.745Z,22.42
2022-08-20T05:47:18.347Z,22.38
2022-08-20T05:50:10.375Z,22.36
2022-08-20T05:52:59.178Z,22.34
2022-08-20T05:55:35.158Z,22.34
2022-08-20T05:58:08.346Z,22.35
2022-08-20T06:00:45.105Z,22.35
2022-08-20T06:03:36.839Z,22.34
2022-08-20T06:06:20.671Z,22.34
2022-08-20T06:09:07.673Z,22.32
2022-08-20T06:11:37.554Z,22.32
2022-08-20T06:14:09.928Z,22.32
2022-08-20T06:16:39.492Z,22.38
2022-08-20T06:19:32.506Z,22.46
2022-08-20T06:22:18.422Z,22.53
2022-08-20T06:24:57.094Z,22.55
2022-08-20T06:27:28.527Z,22.59
2022-08-20T06:30:00.531Z,22.62
2022-08-20T06:32:35.749Z,22.63
2022-08-20T06:35:10.237Z,22.67
2022-08-20T06:37:40.823Z,22.76
2022-08-20T06:40:12.292Z,22.85
2022-08-20T06:42:49.043Z,22.90
2022-08-20T06:45:29.635Z,22.96
2022-08-20T06:48:05.550Z,23.02
2022-08-20T06:50:47.467Z,23.09
2022-08-20T06:53:23.120Z,23.20
2022-08-20T06:56:02.462Z,23.34
2022-08-20T06:58:38.644Z,23.54
2022-08-20T07:01:13.918Z,23.84
2022-08-20T07:03:55.331Z,24.19
2022-08-20T07:06:27.088Z,24.52
2022-08-20T07:08:58.765Z,24.77
2022-08-20T07:11:28.945Z,24.83
2022-08-20T07:13:58.973Z,24.88
2022-08-20T07:16:36.749Z,24.92
2022-08-20T07:19:06.677Z,24.99
2022-08-20T07:21:39.038Z,25.20
2022-08-20T07:24:12.755Z,25.50
2022-08-20T07:26:42.545Z,25.82
2022-08-20T07:29:11.924Z,26.09
2022-08-20T07:31:59.943Z,26.29
2022-08-20T07:34:36.174Z,26.39
2022-08-20T07:37:06.783Z,26.44
2022-08-20T07:39:36.500Z,26.48
2022-08-20T07:42:07.451Z,26.50
2022-08-20T07:44:39.138Z,26.50
2022-08-20T07:47:13.417Z,26.47
2022-08-20T07:49:42.601Z,26.46
2022-08-20T07:52:13.780Z,26.48
2022-08-20T07:54:45.175Z,26.36
2022-08-20T07:57:17.522Z,26.23
2022-08-20T07:59:54.302Z,26.20
2022-08-20T08:02:29.390Z,26.11
2022-08-20T08:04:59.551Z,26.03
2022-08-20T08:07:32.897Z,26.01
2022-08-20T08:10:07.281Z,25.95
2022-08-20T08:12:45.541Z,25.89
2022-08-20T08:15:22.713Z,25.83
2022-08-20T08:17:56.671Z,25.68
2022-08-20T08:20:26.298Z,25.57
2022-08-20T08:22:56.061Z,25.54
2022-08-20T08:25:28.400Z,25.54
2022-08-20T08:28:01.294Z,25.59
2022-08-20T08:30:34.255Z,25.66
2022-08-20T08:33:22.029Z,25.73
2022-08-20T08:35:51.669Z,25.84
2022-08-20T08:38:23.529Z,25.98
2022-08-20T08:40:59.757Z,26.11
2022-08-20T08:43:31.818Z,26.21
2022-08-20T08:46:06.475Z,26.34
2022-08-20T08:48:45.802Z,26.46
2022-08-20T08:51:28.776Z,26.56
2022-08-20T08:54:05.957Z,26.58
2022-08-20T08:56:36.650Z,26.66
2022-08-20T08:59:13.917Z,26.73
2022-08-20T09:01:56.895Z,26.77
2022-08-20T09:04:37.913Z,26.87
2022-08-20T09:07:15.114Z,26.91
2022-08-20T09:09:47.198Z,26.91
2022-08-20T09:12:20.535Z,26.94
2022-08-20T09:14:51.693Z,27.04
2022-08-20T09:17:24.911Z,27.12
2022-08-20T09:19:57.247Z,27.05
2022-08-20T09:22:26.485Z,27.03
2022-08-20T09:24:58.471Z,27.08
2022-08-20T09:27:27.829Z,27.18
2022-08-20T09:29:57.276Z,27.26
2022-08-20T09:32:26.460Z,27.41
2022-08-20T09:34:56.921Z,27.62
2022-08-20T09:37:33.660Z,27.80
2022-08-20T09:40:07.885Z,28.06
2022-08-20T09:42:41.591Z,28.22
2022-08-20T09:45:13.270Z,28.37
2022-08-20T09:47:56.608Z,28.50
2022-08-20T09:50:30.897Z,28.64
2022-08-20T09:53:02.319Z,28.72
2022-08-20T09:55:38.217Z,28.81
2022-08-20T09:58:41.661Z,28.76
2022-08-20T10:01:18.655Z,28.65
2022-08-20T10:03:49.833Z,28.63
2022-08-20T10:06:20.739Z,28.56
2022-08-20T10:08:50.769Z,28.47
2022-08-20T10:11:19.782Z,28.42
2022-08-20T10:13:49.828Z,28.35
2022-08-20T10:16:18.896Z,28.28
2022-08-20T10:18:49.561Z,28.20
2022-08-20T10:21:18.801Z,28.07
2022-08-20T10:23:48.114Z,27.98
2022-08-20T10:26:19.504Z,27.95
2022-08-20T10:28:48.514Z,27.95
2022-08-20T10:31:17.694Z,27.88
2022-08-20T10:33:49.512Z,27.77
2022-08-20T10:36:18.865Z,27.76
2022-08-20T10:38:49.220Z,27.81
2022-08-20T10:41:18.359Z,27.88
2022-08-20T10:43:47.536Z,27.93
2022-08-20T10:46:20.393Z,27.97
2022-08-20T10:48:49.605Z,28.06
2022-08-20T10:51:18.669Z,28.15
2022-08-20T10:53:48.306Z,28.25
2022-08-20T10:56:17.605Z,28.42
2022-08-20T10:58:46.653Z,28.47
2022-08-20T11:01:32.903Z,28.41
2022-08-20T11:04:03.534Z,28.29
2022-08-20T11:06:32.845Z,28.39
2022-08-20T11:09:05.450Z,28.40
2022-08-20T11:11:38.614Z,28.34
2022-08-20T11:14:07.882Z,28.28
2022-08-20T11:16:37.295Z,28.26
2022-08-20T11:19:08.784Z,28.27
2022-08-20T11:21:42.017Z,28.29
2022-08-20T11:24:13.671Z,28.29
2022-08-20T11:26:45.254Z,28.27
2022-08-20T11:29:17.642Z,28.20
2022-08-20T11:31:46.710Z,28.18
2022-08-20T11:34:15.648Z,28.21
2022-08-20T11:36:50.015Z,28.27
2022-08-20T11:39:25.311Z,28.31
2022-08-20T11:41:55.346Z,28.25
2022-08-20T11:44:25.100Z,28.17
2022-08-20T11:46:54.539Z,28.08
2022-08-20T11:49:26.111Z,28.05
2022-08-20T11:51:58.039Z,28.08
2022-08-20T11:54:32.008Z,28.19
2022-08-20T11:57:08.985Z,28.30
2022-08-20T11:59:40.508Z,28.39
2022-08-20T12:02:12.481Z,28.37
2022-08-20T12:04:42.095Z,28.32
2022-08-20T12:07:14.994Z,28.30
2022-08-20T12:09:50.281Z,28.30
2022-08-20T12:12:24.222Z,28.33
2022-08-20T12:14:56.554Z,28.36
2022-08-20T12:17:30.405Z,28.37
2022-08-20T12:20:04.105Z,28.41
2022-08-20T12:22:33.417Z,28.42
2022-08-20T12:25:02.615Z,28.35
2022-08-20T12:27:37.440Z,28.32
2022-08-20T12:30:21.690Z,28.26
2022-08-20T12:32:51.029Z,28.22
2022-08-20T12:35:21.282Z,28.19
2022-08-20T12:37:51.245Z,28.16
2022-08-20T12:40:31.829Z,28.17
2022-08-20T12:43:03.996Z,28.24
2022-08-20T12:45:34.013Z,28.35
2022-08-20T12:48:11.105Z,28.42
2022-08-20T12:50:45.952Z,28.43
2022-08-20T12:53:15.170Z,28.35
2022-08-20T12:55:44.473Z,28.33
2022-08-20T12:58:16.398Z,28.34
2022-08-20T13:00:51.027Z,28.35
2022-08-20T13:03:22.071Z,28.39
2022-08-20T13:05:51.241Z,28.45
2022-08-20T13:08:20.402Z,28.45
2022-08-20T13:10:49.384Z,28.43
2022-08-20T13:13:20.867Z,28.42
2022-08-20T13:15:52.512Z,28.39
2022-08-20T13:18:21.899Z,28.29
2022-08-20T13:20:50.972Z,28.21
2022-08-20T13:23:20.175Z,28.20
2022-08-20T13:25:53.360Z,28.16
2022-08-20T13:28:27.854Z,28.14
2022-08-20T13:31:33.092Z,28.14
2022-08-20T13:34:06.277Z,28.14
2022-08-20T13:36:36.369Z,28.19
2022-08-20T13:39:13.083Z,28.20
2022-08-20T13:41:44.539Z,28.20
2022-08-20T13:44:13.769Z,28.18
2022-08-20T13:46:42.847Z,28.16
2022-08-20T13:49:16.685Z,28.16
2022-08-20T13:51:52.236Z,28.17
2022-08-20T13:54:21.805Z,28.13
2022-08-20T13:56:50.954Z,28.10
2022-08-20T13:59:21.318Z,28.10
2022-08-20T14:01:50.363Z,28.09
2022-08-20T14:04:22.883Z,28.03
2022-08-20T14:06:55.040Z,27.98
2022-08-20T14:09:24.071Z,27.95
2022-08-20T14:11:53.063Z,27.91
2022-08-20T14:14:22.110Z,27.90
2022-08-20T14:16:51.115Z,27.90
2022-08-20T14:19:20.210Z,27.91
2022-08-20T14:21:49.229Z,27.93
2022-08-20T14:24:18.232Z,27.96
2022-08-20T14:26:47.293Z,27.99
2022-08-20T14:29:19.941Z,27.99
2022-08-20T14:31:48.959Z,27.90
2022-08-20T14:34:20.034Z,27.80
2022-08-20T14:36:48.967Z,27.77
2022-08-20T14:39:20.497Z,27.76
2022-08-20T14:41:49.715Z,27.75
2022-08-20T14:44:18.874Z,27.79
2022-08-20T14:46:47.784Z,27.83
2022-08-20T14:49:16.855Z,27.87
2022-08-20T14:51:45.752Z,27.93
2022-08-20T14:54:14.847Z,27.96
2022-08-20T14:56:43.890Z,27.97
2022-08-20T14:59:12.756Z,27.97
2022-08-20T15:01:41.701Z,28.06
2022-08-20T15:04:10.573Z,28.12
2022-08-20T15:06:39.597Z,28.16
2022-08-20T15:09:08.825Z,28.19
2022-08-20T15:11:40.155Z,28.20
2022-08-20T15:14:09.099Z,28.19
2022-08-20T15:16:39.495Z,28.16
2022-08-20T15:19:08.757Z,28.09
2022-08-20T15:21:45.471Z,28.05
2022-08-20T15:24:19.416Z,27.99
2022-08-20T15:26:48.969Z,27.97
2022-08-20T15:29:23.267Z,27.95
2022-08-20T15:31:54.239Z,27.95
2022-08-20T15:34:23.316Z,27.96
2022-08-20T15:36:52.282Z,27.91
2022-08-20T15:39:25.914Z,27.85
2022-08-20T15:41:55.531Z,27.82
2022-08-20T15:44:24.803Z,27.79
2022-08-20T15:46:53.952Z,27.75
2022-08-20T15:49:24.661Z,27.69
2022-08-20T15:51:58.368Z,27.64
2022-08-20T15:54:32.463Z,27.56
2022-08-20T15:57:33.788Z,27.54
2022-08-20T16:00:14.487Z,27.53
2022-08-20T16:03:08.451Z,27.52
2022-08-20T16:06:03.476Z,27.45
2022-08-20T16:09:03.929Z,27.42
2022-08-20T16:11:42.907Z,27.43
2022-08-20T16:14:25.397Z,27.41
2022-08-20T16:17:05.834Z,27.41
2022-08-20T16:20:07.611Z,27.40
2022-08-20T16:22:46.230Z,27.41
2022-08-20T16:25:17.364Z,27.48
2022-08-20T16:28:23.294Z,27.52
2022-08-20T16:31:05.727Z,27.54
2022-08-20T16:34:33.173Z,27.56
2022-08-20T16:37:11.007Z,27.52
2022-08-20T16:39:55.484Z,27.49
2022-08-20T16:42:30.206Z,27.45
2022-08-20T16:45:00.658Z,27.44
2022-08-20T16:47:35.990Z,27.46
2022-08-20T16:50:23.751Z,27.46
2022-08-20T16:52:53.383Z,27.45
2022-08-20T16:55:24.689Z,27.42
2022-08-20T16:57:54.192Z,27.39
2022-08-20T17:00:39.055Z,27.36
2022-08-20T17:03:33.312Z,27.30
2022-08-20T17:06:46.845Z,27.24
2022-08-20T17:09:34.087Z,27.13
2022-08-20T17:12:27.839Z,27.01
2022-08-20T17:14:59.160Z,26.91
2022-08-20T17:17:37.509Z,26.84
2022-08-20T17:20:20.203Z,26.70
2022-08-20T17:23:09.671Z,26.58
2022-08-20T17:25:38.781Z,26.46
2022-08-20T17:28:20.346Z,26.33
2022-08-20T17:30:50.645Z,26.15
2022-08-20T17:33:21.141Z,26.05
2022-08-20T17:36:08.727Z,25.99
2022-08-20T17:38:48.888Z,25.90
2022-08-20T17:41:26.956Z,25.78
2022-08-20T17:44:20.269Z,25.66
2022-08-20T17:46:51.903Z,25.55
2022-08-20T17:49:42.332Z,25.50
2022-08-20T17:52:27.259Z,25.44
2022-08-20T17:54:57.141Z,25.38
2022-08-20T17:57:33.409Z,25.32
2022-08-20T18:00:08.669Z,25.26
2022-08-20T18:02:38.916Z,25.19
2022-08-20T18:05:21.222Z,25.13
2022-08-20T18:08:25.763Z,25.05
2022-08-20T18:11:09.177Z,24.97
2022-08-20T18:14:05.589Z,24.93
2022-08-20T18:17:09.117Z,24.90
2022-08-20T18:20:15.005Z,24.85
2022-08-20T18:23:11.734Z,24.77
2022-08-20T18:26:13.527Z,24.68
2022-08-20T18:29:16.388Z,24.60
2022-08-20T18:31:55.201Z,24.51
2022-08-20T18:34:29.904Z,24.43
2022-08-20T18:37:05.775Z,24.36
2022-08-20T18:39:42.234Z,24.27
2022-08-20T18:42:36.177Z,24.19
2022-08-20T18:45:09.600Z,24.09
2022-08-20T18:47:41.318Z,24.04
2022-08-20T18:50:16.417Z,24.00
2022-08-20T18:53:17.078Z,23.94
2022-08-20T18:56:06.033Z,23.88
2022-08-20T18:59:20.063Z,23.82
2022-08-20T19:01:50.006Z,23.75
2022-08-20T19:04:34.715Z,23.71
2022-08-20T19:07:06.665Z,23.68
2022-08-20T19:09:44.507Z,23.66
2022-08-20T19:13:03.809Z,23.64
2022-08-20T19:15:38.498Z,23.58
2022-08-20T19:18:16.611Z,23.54
2022-08-20T19:20:59.590Z,23.52
2022-08-20T19:23:33.452Z,23.50
2022-08-20T19:26:25.035Z,23.48
2022-08-20T19:29:11.361Z,23.44
2022-08-20T19:31:41.885Z,23.41
2022-08-20T19:34:22.160Z,23.39
2022-08-20T19:37:27.624Z,23.35
2022-08-20T19:39:56.606Z,23.33
2022-08-20T19:42:33.530Z,23.33
2022-08-20T19:45:06.040Z,23.29
2022-08-20T19:47:46.378Z,23.27
2022-08-20T19:50:56.821Z,23.25
2022-08-20T19:53:32.922Z,23.19
2022-08-20T19:56:12.205Z,23.13
2022-08-20T19:58:42.117Z,23.10
2022-08-20T20:01:23.416Z,23.11
2022-08-20T20:04:06.358Z,23.11
2022-08-20T20:06:43.623Z,23.09
2022-08-20T20:09:23.726Z,23.07
2022-08-20T20:12:03.206Z,23.04
2022-08-20T20:14:37.543Z,23.01
2022-08-20T20:17:09.275Z,22.96
2022-08-20T20:19:49.836Z,22.94
2022-08-20T20:22:36.079Z,22.93
2022-08-20T20:25:21.007Z,22.89
2022-08-20T20:27:57.008Z,22.86
2022-08-20T20:30:37.376Z,22.83
2022-08-20T20:33:32.548Z,22.82
2022-08-20T20:36:18.500Z,22.79
2022-08-20T20:39:04.752Z,22.73
2022-08-20T20:41:38.097Z,22.70
2022-08-20T20:44:22.969Z,22.66
2022-08-20T20:47:05.075Z,22.65
2022-08-20T20:50:05.779Z,22.63
2022-08-20T20:52:48.640Z,22.60
2022-08-20T20:55:17.722Z,22.57
2022-08-20T20:57:47.275Z,22.53
2022-08-20T21:00:19.141Z,22.49
2022-08-20T21:02:48.565Z,22.44
2022-08-20T21:05:25.964Z,22.40
2022-08-20T21:08:02.535Z,22.40
2022-08-20T21:10:36.646Z,22.39
2022-08-20T21:13:08.614Z,22.36
2022-08-20T21:15:39.994Z,22.33
2022-08-20T21:18:09.542Z,22.29
2022-08-20T21:20:38.715Z,22.19
2022-08-20T21:23:08.218Z,22.18
2022-08-20T21:25:37.662Z,22.20
2022-08-20T21:28:08.191Z,22.21
2022-08-20T21:30:37.486Z,22.20
2022-08-20T21:33:06.785Z,22.17
2022-08-20T21:35:36.105Z,22.16
2022-08-20T21:38:05.403Z,22.16
2022-08-20T21:40:35.173Z,22.15
2022-08-20T21:43:07.485Z,22.17
2022-08-20T21:45:40.339Z,22.17
2022-08-20T21:48:12.657Z,22.19
2022-08-20T21:50:42.423Z,22.21
2022-08-20T21:53:12.784Z,22.21
2022-08-20T21:55:42.234Z,22.21
2022-08-20T21:58:12.397Z,22.20
2022-08-20T22:00:57.458Z,22.19
2022-08-20T22:03:38.872Z,22.18
2022-08-20T22:06:13.653Z,22.15
2022-08-20T22:08:42.832Z,22.12
2022-08-20T22:11:13.716Z,22.10
2022-08-20T22:13:44.854Z,22.07
2022-08-20T22:16:18.946Z,22.06
2022-08-20T22:18:50.372Z,22.04
2022-08-20T22:21:31.397Z,22.03
2022-08-20T22:24:05.382Z,22.03
2022-08-20T22:26:38.150Z,22.04
2022-08-20T22:29:11.277Z,22.05
2022-08-20T22:31:43.735Z,22.04
2022-08-20T22:34:20.135Z,22.02
2022-08-20T22:36:59.685Z,22.01
2022-08-20T22:39:28.947Z,22.00
2022-08-20T22:42:01.461Z,22.02
2022-08-20T22:44:30.815Z,22.02
2022-08-20T22:47:05.989Z,22.03
2022-08-20T22:49:44.573Z,22.04
2022-08-20T22:52:16.358Z,22.05
2022-08-20T22:54:46.078Z,22.06
2022-08-20T22:57:15.774Z,22.04
2022-08-20T22:59:53.220Z,22.03
2022-08-20T23:02:24.354Z,22.02
2022-08-20T23:04:53.950Z,22.03
2022-08-20T23:07:26.066Z,22.01
2022-08-20T23:09:55.573Z,21.99
2022-08-20T23:12:24.989Z,21.96
2022-08-20T23:14:55.235Z,21.96
2022-08-20T23:17:24.743Z,21.96
2022-08-20T23:19:54.654Z,21.97
2022-08-20T23:22:24.820Z,21.97
2022-08-20T23:24:57.347Z,21.94
2022-08-20T23:27:29.824Z,21.92
2022-08-20T23:30:00.032Z,21.93
2022-08-20T23:32:30.160Z,21.96
2022-08-20T23:35:00.249Z,21.95
2022-08-20T23:37:29.661Z,21.94
2022-08-20T23:39:58.761Z,21.94
2022-08-20T23:42:31.426Z,21.93
2022-08-20T23:45:05.711Z,21.91
2022-08-20T23:47:36.560Z,21.88
2022-08-20T23:50:11.697Z,21.87
2022-08-20T23:52:41.674Z,21.86
2022-08-20T23:55:12.293Z,21.87
2022-08-20T23:57:44.773Z,21.87
